GMMC

Anfa Airport

Casablanca, Morocco
METAR GMMC 212000Z 34008KT 8000 BKN016 20/15 Q1017
Observed Flight Rules
Jun-21 @ 20:00 UTC (10 hours ago) Marginal Visual Flight Rules
Wind Visibility Clouds
340° at 8 knots 7,998 meters
  • Broken at 1,600' AGL
Temperatures Readings
Current 20°C / 68°F
Dewpoint 15°C / 59°F
Humidity 73%
Altimeter 30.03" Hg
Pressure 1017 hPa
Elevation 62
METAR GMMC 212000Z 34008KT 8000 BKN016 20/15 Q1017
Observed Flight Rules
Jun-21 @ 20:00 UTC
(10 hours ago)
MVFR
Wind Visibility
340° at 8 knots 7,998 meters
Clouds
  • Broken at 1,600' AGL
Temperature Dewpoint
20°C / 68°F 15°C / 59°F
Humidity Altimeter Pressure
73% 30.03" Hg 1017 hPa